createdAt,value
2018-07-12T00:01:19.022Z,15.80
2018-07-12T00:03:46.204Z,15.80
2018-07-12T00:11:08.330Z,15.80
2018-07-12T00:13:35.518Z,15.80
2018-07-12T00:16:02.719Z,15.80
2018-07-12T00:18:29.909Z,15.80
2018-07-12T00:20:57.110Z,15.70
2018-07-12T00:23:24.307Z,15.70
2018-07-12T00:25:51.495Z,15.70
2018-07-12T00:28:18.699Z,15.70
2018-07-12T00:30:45.952Z,15.70
2018-07-12T00:33:13.154Z,15.70
2018-07-12T00:35:40.338Z,15.60
2018-07-12T00:38:07.530Z,15.60
2018-07-12T00:45:29.636Z,15.60
2018-07-12T00:47:56.818Z,15.60
2018-07-12T00:50:24.022Z,15.60
2018-07-12T00:52:51.228Z,15.60
2018-07-12T00:55:18.438Z,15.60
2018-07-12T00:57:45.629Z,15.70
2018-07-12T01:00:12.820Z,15.70
2018-07-12T01:02:40.027Z,15.80
2018-07-12T01:05:07.207Z,15.80
2018-07-12T01:07:34.429Z,15.80
2018-07-12T01:10:01.629Z,15.90
2018-07-12T01:12:28.798Z,15.90
2018-07-12T01:14:56.211Z,15.90
2018-07-12T01:17:23.405Z,16.00
2018-07-12T01:19:50.611Z,16.00
2018-07-12T01:22:17.835Z,16.00
2018-07-12T01:24:44.995Z,16.10
2018-07-12T01:27:12.182Z,16.10
2018-07-12T01:29:39.383Z,16.10
2018-07-12T01:32:06.562Z,16.20
2018-07-12T01:34:33.766Z,16.20
2018-07-12T01:37:01.149Z,16.20
2018-07-12T01:39:28.350Z,16.30
2018-07-12T01:41:55.553Z,16.30
2018-07-12T01:44:22.755Z,16.40
2018-07-12T01:46:49.945Z,16.40
2018-07-12T01:49:17.133Z,16.40
2018-07-12T01:51:44.335Z,16.40
2018-07-12T01:54:11.510Z,16.40
2018-07-12T01:56:38.714Z,16.30
2018-07-12T01:59:06.118Z,16.20
2018-07-12T02:01:33.307Z,16.10
2018-07-12T02:04:00.507Z,16.00
2018-07-12T02:06:27.714Z,15.90
2018-07-12T02:08:54.894Z,15.80
2018-07-12T02:11:22.081Z,15.70
2018-07-12T02:13:49.321Z,15.60
2018-07-12T02:16:16.519Z,15.50
2018-07-12T02:18:43.711Z,15.40
2018-07-12T02:21:11.084Z,15.40
2018-07-12T02:23:38.314Z,15.30
2018-07-12T02:26:05.494Z,15.20
2018-07-12T02:28:32.697Z,15.10
2018-07-12T02:30:59.887Z,15.00
2018-07-12T02:33:27.086Z,15.00
2018-07-12T02:35:54.286Z,15.00
2018-07-12T02:38:21.482Z,15.00
2018-07-12T02:40:48.680Z,15.00
2018-07-12T02:43:16.035Z,14.90
2018-07-12T02:45:43.230Z,14.90
2018-07-12T02:48:10.435Z,14.90
2018-07-12T02:50:37.645Z,14.90
2018-07-12T02:53:04.849Z,14.90
2018-07-12T02:55:32.041Z,14.90
2018-07-12T02:57:59.232Z,14.90
2018-07-12T03:00:26.414Z,14.90
2018-07-12T03:02:53.610Z,14.90
2018-07-12T03:05:21.011Z,14.90
2018-07-12T03:07:48.258Z,14.90
2018-07-12T03:10:15.449Z,14.90
2018-07-12T03:20:05.002Z,14.90
2018-07-12T03:22:32.198Z,14.90
2018-07-12T03:24:59.394Z,14.90
2018-07-12T03:27:26.608Z,14.90
2018-07-12T03:29:53.867Z,14.90
2018-07-12T03:37:16.023Z,15.00
2018-07-12T03:39:43.246Z,14.90
2018-07-12T03:42:10.446Z,15.00
2018-07-12T03:44:37.644Z,15.00
2018-07-12T03:47:04.869Z,15.10
2018-07-12T03:56:54.423Z,15.10
2018-07-12T03:59:21.634Z,15.10
2018-07-12T04:01:48.834Z,15.10
2018-07-12T04:04:16.036Z,15.10
2018-07-12T04:06:43.246Z,15.10
2018-07-12T04:09:10.430Z,15.10
2018-07-12T04:14:05.115Z,15.00
2018-07-12T04:16:32.310Z,15.00
2018-07-12T04:18:59.528Z,15.00
2018-07-12T04:21:26.708Z,15.00
2018-07-12T04:23:53.923Z,14.90
2018-07-12T04:26:21.127Z,14.90
2018-07-12T04:28:48.337Z,14.90
2018-07-12T04:31:15.550Z,15.00
2018-07-12T04:33:42.778Z,15.00
2018-07-12T04:36:09.974Z,15.10
2018-07-12T04:38:37.183Z,15.10
2018-07-12T04:41:04.376Z,15.20
2018-07-12T04:43:31.585Z,15.20
2018-07-12T04:45:58.780Z,15.20
2018-07-12T04:48:25.958Z,15.30
2018-07-12T04:50:53.154Z,15.30
2018-07-12T04:53:20.422Z,15.40
2018-07-12T04:55:47.690Z,15.40
2018-07-12T04:58:14.945Z,15.50
2018-07-12T05:00:42.078Z,15.40
2018-07-12T05:03:09.275Z,15.50
2018-07-12T05:05:36.474Z,15.50
2018-07-12T05:08:03.729Z,15.70
2018-07-12T05:10:31.519Z,15.70
2018-07-12T05:12:59.096Z,15.90
2018-07-12T05:17:53.883Z,16.10
2018-07-12T05:20:21.259Z,16.10
2018-07-12T05:22:48.486Z,16.30
2018-07-12T05:25:15.675Z,16.40
2018-07-12T05:27:42.881Z,16.50
2018-07-12T05:30:10.072Z,16.60
2018-07-12T05:32:37.270Z,16.70
2018-07-12T05:35:04.867Z,16.70
2018-07-12T05:37:33.087Z,16.80
2018-07-12T05:40:01.505Z,16.70
2018-07-12T05:42:29.710Z,16.80
2018-07-12T05:44:57.931Z,16.90
2018-07-12T05:47:26.169Z,16.80
2018-07-12T05:49:54.390Z,16.90
2018-07-12T05:52:22.627Z,16.90
2018-07-12T05:54:50.854Z,17.00
2018-07-12T05:57:19.098Z,17.00
2018-07-12T05:59:47.302Z,17.10
2018-07-12T06:02:18.491Z,17.20
2018-07-12T06:04:46.833Z,17.20
2018-07-12T06:07:19.282Z,17.30
2018-07-12T06:09:47.695Z,17.30
2018-07-12T06:12:15.920Z,17.30
2018-07-12T06:14:44.102Z,17.40
2018-07-12T06:17:12.319Z,17.60
2018-07-12T06:19:40.526Z,17.70
2018-07-12T06:22:08.727Z,17.80
2018-07-12T06:24:37.005Z,17.90
2018-07-12T06:27:05.179Z,18.10
2018-07-12T06:29:33.386Z,18.10
2018-07-12T06:32:01.575Z,18.20
2018-07-12T06:34:29.790Z,18.20
2018-07-12T06:36:58.615Z,18.10
2018-07-12T06:39:26.802Z,18.30
2018-07-12T06:41:55.048Z,18.40
2018-07-12T06:44:23.346Z,18.50
2018-07-12T06:46:51.547Z,18.60
2018-07-12T06:49:19.757Z,18.60
2018-07-12T06:51:47.978Z,18.50
2018-07-12T06:54:16.338Z,18.70
2018-07-12T06:56:44.543Z,18.70
2018-07-12T07:01:40.733Z,18.90
2018-07-12T07:04:09.040Z,19.00
2018-07-12T07:06:37.556Z,18.90
2018-07-12T07:09:07.697Z,18.90
2018-07-12T07:11:35.974Z,18.80
2018-07-12T07:14:04.275Z,18.90
2018-07-12T07:16:32.494Z,18.90
2018-07-12T07:19:00.720Z,19.00
2018-07-12T07:21:28.937Z,19.10
2018-07-12T07:23:57.131Z,19.20
2018-07-12T07:26:25.409Z,19.20
2018-07-12T07:28:53.858Z,19.30
2018-07-12T07:31:22.127Z,19.30
2018-07-12T07:33:50.507Z,19.20
2018-07-12T07:36:19.022Z,19.20
2018-07-12T07:38:47.287Z,19.10
2018-07-12T07:41:15.518Z,19.30
2018-07-12T07:43:43.807Z,19.50
2018-07-12T07:46:12.018Z,19.60
2018-07-12T07:48:40.341Z,19.80
2018-07-12T07:51:09.067Z,19.90
2018-07-12T07:53:38.135Z,20.00
2018-07-12T07:56:06.419Z,20.00
2018-07-12T07:58:34.675Z,20.10
2018-07-12T08:01:02.958Z,20.10
2018-07-12T08:03:31.263Z,20.20
2018-07-12T08:05:59.468Z,20.20
2018-07-12T08:10:56.346Z,20.10
2018-07-12T08:13:24.744Z,20.10
2018-07-12T08:15:53.347Z,20.10
2018-07-12T08:18:21.709Z,19.80
2018-07-12T08:20:49.952Z,19.80
2018-07-12T08:23:18.186Z,19.90
2018-07-12T08:25:46.566Z,20.00
2018-07-12T08:28:27.234Z,20.10
2018-07-12T08:30:55.916Z,20.10
2018-07-12T08:33:24.808Z,20.10
2018-07-12T08:35:53.038Z,20.20
2018-07-12T08:38:21.417Z,20.30
2018-07-12T08:40:49.781Z,20.40
2018-07-12T08:43:18.130Z,20.40
2018-07-12T08:45:46.426Z,20.50
2018-07-12T08:53:11.041Z,21.00
2018-07-12T08:55:39.577Z,21.30
2018-07-12T08:58:08.044Z,21.50
2018-07-12T09:00:39.111Z,21.60
2018-07-12T09:03:14.203Z,21.60
2018-07-12T09:05:42.857Z,21.60
2018-07-12T09:08:11.342Z,21.80
2018-07-12T09:10:39.721Z,22.10
2018-07-12T09:13:08.347Z,22.30
2018-07-12T09:15:36.685Z,22.40
2018-07-12T09:18:05.082Z,22.50
2018-07-12T09:20:34.875Z,22.60
2018-07-12T09:23:03.267Z,22.70
2018-07-12T09:25:32.242Z,22.80
2018-07-12T09:28:00.567Z,22.80
2018-07-12T09:30:28.964Z,22.80
2018-07-12T09:32:57.284Z,22.80
2018-07-12T09:35:25.616Z,23.00
2018-07-12T09:37:54.288Z,23.30
2018-07-12T09:40:22.690Z,23.50
2018-07-12T09:42:51.156Z,23.80
2018-07-12T09:45:19.464Z,24.20
2018-07-12T09:47:48.551Z,24.50
2018-07-12T09:50:16.898Z,24.60
2018-07-12T09:52:45.223Z,24.60
2018-07-12T09:55:13.676Z,24.80
2018-07-12T09:57:53.221Z,24.80
2018-07-12T10:00:25.799Z,24.70
2018-07-12T10:02:59.403Z,24.70
2018-07-12T10:05:33.138Z,24.50
2018-07-12T10:08:06.765Z,24.40
2018-07-12T10:10:39.379Z,24.30
2018-07-12T10:13:12.993Z,24.40
2018-07-12T10:15:43.614Z,24.60
2018-07-12T10:18:17.422Z,24.50
2018-07-12T10:20:45.736Z,24.40
2018-07-12T10:23:14.004Z,24.20
2018-07-12T10:25:42.236Z,24.00
2018-07-12T10:28:10.514Z,24.10
2018-07-12T10:30:38.792Z,24.30
2018-07-12T10:33:07.094Z,24.40
2018-07-12T10:35:35.367Z,24.20
2018-07-12T10:38:03.646Z,24.30
2018-07-12T10:40:32.225Z,24.40
2018-07-12T10:43:00.616Z,24.80
2018-07-12T10:45:28.840Z,25.30
2018-07-12T10:47:57.118Z,25.60
2018-07-12T10:50:25.355Z,25.80
2018-07-12T10:52:53.790Z,25.90
2018-07-12T10:55:22.111Z,26.00
2018-07-12T10:57:50.438Z,26.30
2018-07-12T11:00:18.775Z,26.60
2018-07-12T11:02:48.835Z,27.00
2018-07-12T11:05:17.154Z,26.90
2018-07-12T11:07:45.572Z,26.90
2018-07-12T11:10:14.811Z,26.90
2018-07-12T11:12:43.693Z,27.20
2018-07-12T11:15:11.986Z,27.50
2018-07-12T11:17:40.302Z,27.80
2018-07-12T11:20:09.338Z,28.00
2018-07-12T11:22:37.647Z,28.00
2018-07-12T11:25:06.035Z,28.00
2018-07-12T11:27:35.295Z,27.80
2018-07-12T11:30:03.783Z,27.40
2018-07-12T11:32:32.070Z,27.30
2018-07-12T11:35:00.769Z,27.50
2018-07-12T11:37:29.116Z,28.10
2018-07-12T11:39:57.600Z,29.00
2018-07-12T11:42:26.209Z,30.80
2018-07-12T11:44:54.500Z,32.50
2018-07-12T11:47:22.951Z,34.00
2018-07-12T11:49:51.383Z,35.00
2018-07-12T11:52:19.775Z,35.40
2018-07-12T11:54:48.242Z,35.60
2018-07-12T12:02:12.823Z,34.50
2018-07-12T12:04:42.006Z,35.00
2018-07-12T12:07:10.788Z,35.90
2018-07-12T12:09:39.394Z,37.30
2018-07-12T12:12:08.613Z,38.80
2018-07-12T12:14:37.691Z,39.90
2018-07-12T12:17:06.086Z,41.00
2018-07-12T12:19:35.276Z,41.70
2018-07-12T12:22:04.608Z,42.40
2018-07-12T12:24:32.978Z,42.90
2018-07-12T12:27:01.332Z,41.90
2018-07-12T12:29:29.691Z,41.60
2018-07-12T12:31:58.798Z,42.40
2018-07-12T12:34:28.432Z,41.80
2018-07-12T12:36:56.851Z,40.90
2018-07-12T12:39:25.263Z,39.70
2018-07-12T12:41:53.784Z,39.70
2018-07-12T12:44:22.817Z,39.80
2018-07-12T12:46:52.427Z,40.80
2018-07-12T12:49:20.869Z,42.10
2018-07-12T12:54:17.514Z,44.00
2018-07-12T12:56:46.613Z,43.30
2018-07-12T12:59:15.736Z,42.90
2018-07-12T13:01:44.125Z,43.60
2018-07-12T13:04:13.543Z,44.40
2018-07-12T13:06:42.020Z,44.70
2018-07-12T13:09:10.924Z,43.90
2018-07-12T13:11:39.239Z,42.20
2018-07-12T13:14:08.168Z,41.80
2018-07-12T13:16:39.530Z,42.70
2018-07-12T13:19:07.903Z,43.80
2018-07-12T13:21:36.558Z,44.50
2018-07-12T13:26:32.799Z,43.70
2018-07-12T13:29:01.056Z,43.40
2018-07-12T13:31:29.374Z,43.30
2018-07-12T13:33:58.251Z,44.00
2018-07-12T13:36:27.271Z,45.30
2018-07-12T13:38:55.601Z,46.50
2018-07-12T13:41:24.579Z,47.30
2018-07-12T13:44:04.121Z,48.10
2018-07-12T13:46:32.491Z,48.90
2018-07-12T13:49:00.834Z,49.60
2018-07-12T13:51:29.151Z,50.00
2018-07-12T13:53:57.679Z,49.80
2018-07-12T13:56:25.995Z,50.00
2018-07-12T13:58:59.618Z,49.60
2018-07-12T14:01:31.406Z,49.70
2018-07-12T14:03:59.833Z,49.10
2018-07-12T14:06:28.606Z,48.60
2018-07-12T14:08:56.827Z,48.90
2018-07-12T14:11:25.088Z,48.80
2018-07-12T14:13:53.386Z,48.90
2018-07-12T14:18:50.931Z,50.40
2018-07-12T14:21:19.350Z,50.90
2018-07-12T14:23:47.627Z,51.50
2018-07-12T14:26:15.926Z,52.10
2018-07-12T14:28:44.516Z,52.00
2018-07-12T14:31:12.731Z,51.50
2018-07-12T14:33:40.990Z,51.00
2018-07-12T14:36:09.251Z,50.90
2018-07-12T14:38:37.515Z,51.00
2018-07-12T14:41:06.077Z,50.70
2018-07-12T14:43:34.366Z,49.90
2018-07-12T14:46:02.574Z,49.30
2018-07-12T14:48:30.846Z,49.50
2018-07-12T14:50:59.093Z,49.70
2018-07-12T14:53:27.392Z,50.00
2018-07-12T14:55:55.716Z,49.00
2018-07-12T14:58:25.678Z,48.50
2018-07-12T15:00:54.236Z,49.10
2018-07-12T15:03:22.802Z,49.90
2018-07-12T15:08:18.983Z,51.60
2018-07-12T15:10:47.580Z,51.90
2018-07-12T15:13:15.800Z,51.30
2018-07-12T15:15:44.074Z,51.40
2018-07-12T15:20:40.362Z,51.70
2018-07-12T15:23:08.591Z,51.30
2018-07-12T15:28:05.082Z,51.60
2018-07-12T15:30:33.299Z,52.20
2018-07-12T15:33:01.566Z,52.80
2018-07-12T15:35:29.886Z,53.10
2018-07-12T15:37:58.101Z,53.50
2018-07-12T15:40:26.342Z,53.80
2018-07-12T15:42:54.640Z,53.60
2018-07-12T15:45:22.902Z,53.70
2018-07-12T15:47:51.218Z,53.80
2018-07-12T15:50:23.515Z,53.60
2018-07-12T15:55:20.042Z,54.00
2018-07-12T15:57:48.914Z,53.90
2018-07-12T16:00:17.462Z,53.40
2018-07-12T16:02:45.763Z,53.00
2018-07-12T16:05:13.995Z,52.50
2018-07-12T16:07:42.289Z,52.30
2018-07-12T16:10:10.728Z,52.60
2018-07-12T16:12:38.989Z,52.60
2018-07-12T16:15:07.269Z,52.60
2018-07-12T16:17:35.543Z,51.80
2018-07-12T16:20:03.831Z,51.60
2018-07-12T16:22:32.081Z,51.70
2018-07-12T16:25:00.306Z,51.90
2018-07-12T16:29:56.544Z,48.50
2018-07-12T16:32:24.986Z,45.20
2018-07-12T16:34:53.232Z,42.20
2018-07-12T16:37:21.486Z,41.80
2018-07-12T16:42:17.739Z,44.80
2018-07-12T16:44:45.969Z,46.30
2018-07-12T16:47:14.267Z,47.70
2018-07-12T16:49:42.680Z,48.70
2018-07-12T16:52:10.979Z,48.60
2018-07-12T16:54:39.423Z,47.60
2018-07-12T16:57:07.584Z,47.90
2018-07-12T16:59:35.887Z,48.50
2018-07-12T17:02:04.098Z,48.90
2018-07-12T17:04:32.677Z,49.10
2018-07-12T17:07:00.946Z,49.30
2018-07-12T17:09:29.238Z,49.30
2018-07-12T17:11:57.595Z,49.50
2018-07-12T17:14:25.829Z,49.50
2018-07-12T17:16:54.321Z,48.20
2018-07-12T17:19:22.548Z,46.40
2018-07-12T17:22:00.355Z,43.10
2018-07-12T17:24:29.699Z,39.80
2018-07-12T17:26:59.651Z,36.80
2018-07-12T17:32:11.345Z,33.10
2018-07-12T17:34:55.017Z,31.70
2018-07-12T17:37:23.494Z,30.80
2018-07-12T17:39:51.829Z,29.90
2018-07-12T17:44:49.243Z,28.60
2018-07-12T17:47:17.540Z,28.10
2018-07-12T17:49:45.754Z,27.70
2018-07-12T17:52:13.991Z,27.40
2018-07-12T17:54:42.216Z,27.00
2018-07-12T17:57:10.423Z,26.70
2018-07-12T17:59:38.890Z,26.50
2018-07-12T18:02:07.210Z,26.40
2018-07-12T18:07:03.423Z,26.20
2018-07-12T18:09:31.628Z,26.10
2018-07-12T18:11:59.880Z,26.00
2018-07-12T18:14:28.217Z,25.80
2018-07-12T18:16:56.346Z,25.60
2018-07-12T18:19:24.825Z,25.50
2018-07-12T18:21:53.229Z,25.20
2018-07-12T18:24:21.382Z,25.00
2018-07-12T18:26:49.607Z,24.90
2018-07-12T18:29:17.824Z,24.80
2018-07-12T18:31:46.043Z,24.70
2018-07-12T18:34:14.251Z,24.70
2018-07-12T18:36:42.515Z,24.60
2018-07-12T18:39:10.726Z,24.50
2018-07-12T18:41:39.050Z,24.40
2018-07-12T18:44:07.265Z,24.40
2018-07-12T18:46:35.503Z,24.30
2018-07-12T18:49:03.808Z,24.20
2018-07-12T18:51:32.010Z,24.10
2018-07-12T18:54:00.236Z,24.00
2018-07-12T18:56:29.331Z,23.90
2018-07-12T18:58:57.542Z,23.90
2018-07-12T19:01:25.784Z,23.80
2018-07-12T19:03:53.984Z,23.70
2018-07-12T19:06:22.537Z,23.70
2018-07-12T19:08:50.770Z,23.60
2018-07-12T19:11:18.987Z,23.50
2018-07-12T19:13:47.872Z,23.40
2018-07-12T19:16:16.680Z,23.40
2018-07-12T19:18:44.842Z,23.30
2018-07-12T19:21:13.067Z,23.30
2018-07-12T19:23:41.290Z,23.20
2018-07-12T19:26:09.573Z,23.10
2018-07-12T19:28:38.269Z,23.10
2018-07-12T19:31:06.432Z,23.00
2018-07-12T19:33:34.683Z,22.90
2018-07-12T19:36:02.990Z,22.90
2018-07-12T19:38:31.303Z,22.80
2018-07-12T19:40:59.911Z,22.70
2018-07-12T19:43:28.256Z,22.60
2018-07-12T19:45:56.549Z,22.60
2018-07-12T19:48:24.779Z,22.50
2018-07-12T19:50:53.199Z,22.50
2018-07-12T19:53:21.430Z,22.40
2018-07-12T19:55:49.679Z,22.40
2018-07-12T19:58:17.923Z,22.30
2018-07-12T20:00:46.114Z,22.30
2018-07-12T20:03:14.350Z,22.20
2018-07-12T20:05:42.574Z,22.20
2018-07-12T20:08:10.818Z,22.10
2018-07-12T20:10:39.726Z,22.10
2018-07-12T20:13:07.989Z,22.20
2018-07-12T20:15:36.638Z,22.00
2018-07-12T20:18:04.860Z,22.00
2018-07-12T20:20:33.104Z,22.00
2018-07-12T20:25:29.262Z,21.90
2018-07-12T20:27:57.462Z,21.90
2018-07-12T20:30:25.687Z,21.90
2018-07-12T20:32:53.930Z,21.90
2018-07-12T20:35:22.155Z,22.00
2018-07-12T20:37:50.379Z,22.00
2018-07-12T20:40:18.587Z,22.00
2018-07-12T20:42:46.810Z,22.00
2018-07-12T20:45:15.015Z,22.00
2018-07-12T20:47:43.311Z,22.10
2018-07-12T20:50:11.547Z,22.10
2018-07-12T20:52:39.795Z,22.20
2018-07-12T20:55:08.102Z,22.20
2018-07-12T20:57:36.328Z,22.10
2018-07-12T21:00:04.575Z,22.10
2018-07-12T21:02:32.790Z,22.00
2018-07-12T21:05:01.016Z,21.90
2018-07-12T21:07:29.230Z,21.80
2018-07-12T21:09:57.438Z,21.80
2018-07-12T21:12:25.640Z,21.70
2018-07-12T21:14:53.852Z,21.70
2018-07-12T21:17:22.067Z,21.70
2018-07-12T21:22:18.282Z,21.50
2018-07-12T21:24:46.517Z,21.50
2018-07-12T21:27:14.738Z,21.40
2018-07-12T21:29:42.965Z,21.30
2018-07-12T21:32:11.214Z,21.30
2018-07-12T21:34:39.467Z,21.20
2018-07-12T21:37:07.675Z,21.20
2018-07-12T21:39:35.878Z,21.20
2018-07-12T21:42:04.377Z,21.20
2018-07-12T21:44:32.697Z,21.20
2018-07-12T21:47:00.810Z,21.20
2018-07-12T21:49:29.010Z,21.10
2018-07-12T21:51:57.284Z,21.10
2018-07-12T21:54:25.432Z,21.00
2018-07-12T21:56:53.674Z,21.10
2018-07-12T21:59:21.896Z,21.10
2018-07-12T22:01:50.116Z,21.10
2018-07-12T22:08:53.319Z,21.10
2018-07-12T22:11:21.546Z,21.20
2018-07-12T22:13:49.961Z,21.00
2018-07-12T22:16:18.186Z,21.00
2018-07-12T22:18:46.390Z,21.00
2018-07-12T22:21:14.702Z,21.00
2018-07-12T22:23:42.857Z,21.00
2018-07-12T22:26:12.143Z,20.90
2018-07-12T22:28:40.369Z,20.80
2018-07-12T22:31:08.571Z,20.80
2018-07-12T22:33:36.767Z,20.70
2018-07-12T22:36:05.062Z,20.60
2018-07-12T22:38:33.300Z,20.50
2018-07-12T22:41:01.490Z,20.40
2018-07-12T22:43:29.691Z,20.30
2018-07-12T22:45:57.911Z,20.30
2018-07-12T22:48:26.343Z,20.20
2018-07-12T22:50:54.328Z,20.10
2018-07-12T22:53:22.549Z,20.00
2018-07-12T22:55:50.751Z,19.90
2018-07-12T22:58:18.948Z,19.70
2018-07-12T23:00:47.178Z,19.70
2018-07-12T23:03:15.394Z,19.60
2018-07-12T23:05:43.594Z,19.60
2018-07-12T23:08:11.817Z,19.50
2018-07-12T23:10:40.182Z,19.40
2018-07-12T23:13:08.399Z,19.30
2018-07-12T23:15:36.631Z,19.20
2018-07-12T23:18:04.852Z,19.20
2018-07-12T23:20:33.056Z,19.20
2018-07-12T23:23:01.287Z,19.20
2018-07-12T23:25:29.543Z,19.20
2018-07-12T23:30:25.654Z,19.20
2018-07-12T23:32:53.887Z,19.20
2018-07-12T23:35:22.077Z,19.10
2018-07-12T23:40:18.243Z,19.10
2018-07-12T23:42:46.454Z,19.00
2018-07-12T23:45:14.724Z,19.00
2018-07-12T23:47:42.898Z,18.90
2018-07-12T23:50:11.104Z,18.90
2018-07-12T23:52:39.590Z,18.90
2018-07-12T23:55:07.810Z,18.90
2018-07-12T23:57:36.007Z,18.90
